Terminal Aerodrome Forecast
Issued by NWS

Home | Current Version | Previous Version | Text Only | Print | Product List | Glossary On
Versions: 1 2 3 4 5 6 7 8 9 10 11 12 13 14 15 16
000
FTUS41 KLWX 261100
TAFMTN
TAF
KMTN 261137Z 2612/2712 03009KT 3SM RA OVC025
     FM261500 03011KT 2SM RASN OVC008
     FM261800 36013G20KT 2SM -SNRA OVC008
     FM262100 34013KT 2SM -RASN OVC008
     FM262300 33013KT P6SM OVC008
     FM270400 31008KT P6SM BKN050
     FM271000 31004KT P6SM OVC050=

USA.gov is the U.S. government's official web portal to all federal, state and local government web resources and services.